AirNav   Jet Aviation Boston
 
 1400 users online  

32WY Double L Ranch Airport
Etna, Wyoming, USA

GOING TO ETNA?


FAA INFORMATION EFFECTIVE 29 MARCH 2018

Location

FAA Identifier: 32WY
Lat/Long: 43-04-36.2300N / 111-01-53.4000W
43-04.603833N / 111-01.890000W
43.0767306 / -111.0315000
(estimated)
Elevation: 5732 ft. / 1747 m (estimated)
From city: 5 miles NE of ETNA, WY
Time zone: UTC -6 (UTC -7 during Standard Time)
Zip code: 83118

Airport Operations

Airport use: Private use. Permission required prior to landing
Activation date: 06/2012
Control tower: no
ARTCC: SALT LAKE CITY CENTER
FSS: CASPER FLIGHT SERVICE STATION
Attendance: UNATNDD
Wind indicator: yes
Segmented circle: no

Airport Communications

WX AWOS-3 at 46U (6 nm N): 119.925 (307-654-2004)

Nearby radio navigation aids

VOR radial/distance  VOR name  Freq  Var
JACr189/35.2JACKSON VOR/DME115.4013E

Airport Services

Runway Information

Runway 16/34

Dimensions: 2100 x 75 ft. / 640 x 23 m
Surface: turf
RUNWAY 16  RUNWAY 34
Traffic pattern: leftleft
Obstructions: 30 ft. trees, 250 ft. from runwaynone

Airport Ownership and Management from official FAA records

Ownership: Privately-owned
Owner: DOUBLE L RANCH
PO BOX 132
FREEDOM, WY 83120
Phone 307-883-6800
Manager: LANCE MORTENSEN
PO BOX 132
FREEDOM, WY 83120
Phone 307-883-6800

Airport Operational Statistics

Aircraft based on the field: 2
Single engine airplanes: 2
    

Instrument Procedures

There are no published instrument procedures at 32WY.

Some nearby airports with instrument procedures:

KAFO - Afton Municipal Airport (22 nm S)
KJAC - Jackson Hole Airport (34 nm N)
KDIJ - Driggs-Reed Memorial Airport (40 nm N)
KBPI - Miley Memorial Field Airport (50 nm SE)
KIDA - Idaho Falls Regional Airport (52 nm NW)
 
Loc | Ops | Rwys | IFR | FBO | Links
Com | Nav | Svcs | Stats | Notes

AirNav Hotels Sweepstakes
 
Aerial photo
No photo
 
Airport distance calculator
Flying to Double L Ranch Airport? Find the distance to fly.

From to 32WY

Sunrise and sunset
Times for 19-Apr-2018
 Local
(UTC-6)
 Zulu
(UTC)
Morning civil twilight06:0712:07
Sunrise06:3712:37
Sunset20:1002:10
Evening civil twilight20:4002:40

Current date and time
Zulu (UTC)  19-Apr-2018 21:10:47
Local (UTC-6)  19-Apr-2018 15:10:47
 
METAR
KAFO 
22nm S 
192055Z AUTO 15016G19KT 070V170 10SM CLR 15/M11 A2987 RMK AO2
KJAC 
34nm NE 
192056Z 02011KT 10SM CLR 11/M08 A2995 RMK AO2 SLP141 T01111078 56021
KDIJ 
40nm N 
192056Z AUTO VRB03KT 10SM CLR 13/M09 A2994 RMK AO2 SLP126 T01331089 58016
TAF
KJAC 
34nm NE 
191720Z 1918/2018 01008KT P6SM OVC200 FM191900 35011KT P6SM OVC200 FM200200 36017G25KT P6SM OVC080 FM201500 36014G22KT P6SM SCT030 BKN200 AMD LTD TO CLD VIS AND WIND
KDIJ 
40nm N 
191738Z 1918/2018 34007KT P6SM BKN070 FM200000 04011KT P6SM VCSH SCT040 BKN080 FM201700 35008KT P6SM FEW090 AMD LTD TO CLD VIS AND WIND
NOTAMs
Click for the latest NOTAMs
NOTAMs are issued by the DoD/FAA and will open in a separate window not controlled by AirNav.

 

 
 

Would you like to see your business listed on this page?

 If your business provides an interesting product or service to pilots, flight crews, aircraft, or users of the Double L Ranch Airport, you should consider listing it here.  To start the listing process, click on the button below
 
Add a business
 

Other Pages about Double L Ranch Airport

Update a link
 
Copyright © AirNav, LLC. All rights reserved. Privacy Policy  Contact